ESMS/MMX METAR and TAF weather

Enter ICAO airport designator
Station Type Date Time Source
ESMS METAR 2020/07/15 07:20 UTC NOAA

ESMS 150720Z 30006KT 9999 -DZ FEW007 BKN010 15/14 Q1011


Station Type Date Time Source
ESMS Decoded METAR 2020/07/15 07:20 UTC NOAA

Malmo / Sturup, Sweden (ESMS) 55-33N 013-22E
Jul 15, 2020 - 03:20 AM EDT / 2020.07.15 0720 UTC
Wind: from the WNW (300 degrees) at 7 MPH (6 KT):0
Visibility: greater than 7 mile(s):0
Sky conditions: mostly cloudy
Weather: light drizzle
Temperature: 59 F (15 C)
Dew Point: 57 F (14 C)
Relative Humidity: 93%
Pressure (altimeter): 29.85 in. Hg (1011 hPa)
ob: ESMS 150720Z 30006KT 9999 -DZ FEW007 BKN010 15/14 Q1011
cycle: 7

Station Type Date Time Source
ESMS TAF 2020/07/15 06:09 UTC NOAA

TAF ESMS 150502Z 1506/1606 30005KT 9999 BKN020
TEMPO 1506/1511 3000 BR SHRA BKN005 SCT020CB
TEMPO 1513/1520 SHRA SCT020CB

Example: see airport list